Time;durP1;ratioP1;P1;durP2;ratioP2;P2;SDS_P1;SDS_P2;PMS_P1;PMS_P2;Temp;Humidity;BMP_temperature;BMP_pressure;BME280_temperature;BME280_humidity;BME280_pressure;Samples;Min_cycle;Max_cycle;Signal;HPM_P1;HPM_P2
2022/11/11 05:05:27;;;;;;;5.63;4.70;;;5.30;99.90;;;;;;4975679;28;20420;-72
2022/11/11 05:10:38;;;;;;;8.50;4.40;;;5.30;99.90;;;;;;4975733;28;20452;-72
2022/11/11 05:31:37;;;;;;;9.97;5.37;;;5.30;99.90;;;;;;4955932;23;20563;-66
2022/11/11 05:34:05;;;;;;;8.50;5.63;;;5.30;99.90;;;;;;4994582;28;20492;-66
2022/11/11 05:36:32;;;;;;;6.33;5.63;;;5.20;99.90;;;;;;4994883;28;20456;-65
2022/11/11 05:38:59;;;;;;;5.37;4.73;;;5.20;99.90;;;;;;4994276;28;20488;-66
2022/11/11 05:41:26;;;;;;;6.10;4.83;;;5.20;99.90;;;;;;4994865;28;20476;-65
2022/11/11 05:43:52;;;;;;;4.73;4.20;;;5.20;99.90;;;;;;4994764;28;20462;-65
2022/11/11 05:46:19;;;;;;;6.20;4.70;;;5.10;99.90;;;;;;4995145;28;20456;-66
2022/11/11 06:17:22;;;;;;;9.33;5.10;;;5.30;99.90;;;;;;5450630;23;20491;-75
2022/11/11 06:19:48;;;;;;;7.30;4.90;;;5.20;99.90;;;;;;4994187;28;20460;-76
2022/11/11 06:22:54;;;;;;;7.50;4.53;;;5.20;99.90;;;;;;4993929;28;20460;-75
2022/11/11 06:27:42;;;;;;;7.33;4.53;;;5.20;99.90;;;;;;4993419;28;20487;-75
2022/11/11 06:30:10;;;;;;;6.77;4.70;;;5.30;99.90;;;;;;4993961;28;20473;-75
2022/11/11 06:32:38;;;;;;;5.60;5.10;;;5.20;99.90;;;;;;4994069;28;20456;-75
2022/11/11 06:35:06;;;;;;;6.13;4.33;;;5.30;99.90;;;;;;4993303;28;20448;-75
2022/11/11 06:37:32;;;;;;;6.23;4.80;;;5.30;99.90;;;;;;4993632;28;20483;-76
2022/11/11 06:39:59;;;;;;;6.93;4.80;;;5.30;99.90;;;;;;4993908;28;20470;-76
2022/11/11 06:42:26;;;;;;;10.53;4.90;;;5.20;99.90;;;;;;4993864;28;20456;-75
2022/11/11 06:44:53;;;;;;;10.23;5.47;;;5.20;99.90;;;;;;4992944;28;20460;-75
2022/11/11 06:47:19;;;;;;;6.30;4.30;;;5.30;99.90;;;;;;4994022;28;20471;-76
2022/11/11 06:49:47;;;;;;;10.10;5.17;;;5.30;99.90;;;;;;4993034;28;20452;-75
2022/11/11 06:52:14;;;;;;;7.77;5.43;;;5.30;99.90;;;;;;4993534;28;20473;-75
2022/11/11 06:54:41;;;;;;;6.13;4.97;;;5.20;99.90;;;;;;4993324;28;20475;-78
2022/11/11 06:57:08;;;;;;;8.50;5.37;;;5.30;99.90;;;;;;4995206;28;20480;-76
2022/11/11 06:59:34;;;;;;;7.57;5.67;;;5.30;99.90;;;;;;4993181;28;20502;-75
2022/11/11 07:02:01;;;;;;;12.03;5.80;;;5.30;99.90;;;;;;4993450;28;20467;-75
2022/11/11 07:04:28;;;;;;;11.00;5.60;;;5.30;99.90;;;;;;4993030;28;20462;-75
2022/11/11 07:06:56;;;;;;;7.93;5.77;;;5.30;99.90;;;;;;4993097;28;20498;-75
2022/11/11 07:09:24;;;;;;;8.90;5.43;;;5.30;99.90;;;;;;4993324;28;20456;-74
2022/11/11 07:11:51;;;;;;;8.07;5.33;;;5.20;99.90;;;;;;4993223;28;20819;-75
2022/11/11 07:14:18;;;;;;;7.97;5.77;;;5.30;99.90;;;;;;4992627;28;20459;-75
2022/11/11 07:16:44;;;;;;;14.47;5.47;;;5.30;99.90;;;;;;4992789;28;20494;-75
2022/11/11 07:19:11;;;;;;;12.70;5.73;;;5.30;99.90;;;;;;4992935;28;20495;-75
2022/11/11 07:21:38;;;;;;;10.87;5.63;;;5.30;99.90;;;;;;4992870;28;20455;-75
2022/11/11 07:24:06;;;;;;;8.50;6.50;;;5.30;99.90;;;;;;4992771;28;20467;-76
2022/11/11 07:26:33;;;;;;;9.00;6.13;;;5.40;99.90;;;;;;4992506;28;20999;-75
2022/11/11 07:29:00;;;;;;;10.30;5.93;;;5.40;99.90;;;;;;4992242;28;20448;-75
2022/11/11 07:31:27;;;;;;;7.63;5.43;;;5.30;99.90;;;;;;4992439;28;20974;-75
2022/11/11 07:33:54;;;;;;;7.70;5.90;;;5.40;99.90;;;;;;4992649;28;20974;-75
2022/11/11 07:36:21;;;;;;;10.97;6.20;;;5.30;99.90;;;;;;4992527;28;20475;-75
2022/11/11 07:38:47;;;;;;;7.97;6.63;;;5.40;99.90;;;;;;4992351;28;20491;-75
2022/11/11 07:41:16;;;;;;;9.50;6.50;;;5.40;99.90;;;;;;4992795;28;20483;-75
2022/11/11 07:43:42;;;;;;;9.83;6.60;;;5.30;99.90;;;;;;4992580;28;20462;-75
2022/11/11 07:46:09;;;;;;;8.50;6.03;;;5.40;99.90;;;;;;4991966;28;20463;-75
2022/11/11 07:48:36;;;;;;;8.80;5.70;;;5.50;99.90;;;;;;4992662;28;20452;-75
2022/11/11 07:51:03;;;;;;;9.03;5.60;;;5.50;99.90;;;;;;4992604;28;20467;-75
2022/11/11 07:53:29;;;;;;;8.70;6.20;;;5.50;99.90;;;;;;4992656;28;20452;-75
2022/11/11 07:55:56;;;;;;;9.70;6.20;;;5.60;99.90;;;;;;4991462;28;20804;-75
2022/11/11 07:58:25;;;;;;;11.70;5.80;;;5.60;99.90;;;;;;4992163;28;20538;-75
2022/11/11 08:00:52;;;;;;;8.50;6.70;;;5.70;99.90;;;;;;4992690;28;20475;-75
2022/11/11 08:03:18;;;;;;;10.30;7.10;;;5.70;99.90;;;;;;4992246;28;20460;-75
2022/11/11 08:05:45;;;;;;;11.40;6.77;;;5.80;99.90;;;;;;4992291;28;20464;-75
2022/11/11 08:08:12;;;;;;;14.03;7.37;;;5.80;99.90;;;;;;4992484;28;20517;-75
2022/11/11 08:10:39;;;;;;;9.97;7.17;;;5.80;99.90;;;;;;4992196;28;20463;-75
2022/11/11 08:15:51;;;;;;;15.10;10.23;;;5.90;99.90;;;;;;4992109;28;20949;-75
2022/11/11 08:18:18;;;;;;;14.83;9.00;;;6.00;99.90;;;;;;4992270;28;20585;-75
2022/11/11 08:20:45;;;;;;;10.87;7.53;;;6.00;99.90;;;;;;4992282;28;20463;-75
2022/11/11 08:23:15;;;;;;;11.93;8.00;;;6.00;99.90;;;;;;4992177;28;20917;-75
2022/11/11 08:25:42;;;;;;;11.80;8.50;;;6.10;99.90;;;;;;4991612;28;20940;-75
2022/11/11 08:28:09;;;;;;;14.43;8.60;;;6.10;99.90;;;;;;4991953;28;21018;-75
2022/11/11 08:30:36;;;;;;;16.90;9.40;;;6.20;99.90;;;;;;4992122;28;20460;-75
2022/11/11 08:33:05;;;;;;;10.90;8.40;;;6.20;99.90;;;;;;4992272;28;20456;-75
2022/11/11 08:35:32;;;;;;;15.43;8.27;;;6.30;99.90;;;;;;4992283;28;20833;-75
2022/11/11 08:38:01;;;;;;;14.53;8.20;;;6.30;99.90;;;;;;4991677;28;20987;-75
2022/11/11 08:40:28;;;;;;;11.33;7.10;;;6.30;99.90;;;;;;4991732;28;20884;-74
2022/11/11 08:42:56;;;;;;;10.67;7.00;;;6.30;99.90;;;;;;4992073;28;20463;-75
2022/11/11 08:45:23;;;;;;;13.07;7.40;;;6.30;99.90;;;;;;4991887;28;20460;-74
2022/11/11 08:47:50;;;;;;;14.33;6.70;;;6.40;99.90;;;;;;4991833;28;21022;-75
2022/11/11 08:50:19;;;;;;;12.47;6.97;;;6.50;99.90;;;;;;4991870;28;20444;-75
2022/11/11 08:52:46;;;;;;;15.67;7.90;;;6.60;99.90;;;;;;4991609;28;20463;-76
2022/11/11 08:55:13;;;;;;;13.00;7.40;;;6.60;99.90;;;;;;4991749;28;20456;-76
2022/11/11 08:57:40;;;;;;;11.63;7.67;;;6.80;99.90;;;;;;4991872;28;20490;-76
2022/11/11 09:00:08;;;;;;;10.33;6.83;;;6.80;99.90;;;;;;4991600;28;20487;-76
2022/11/11 09:02:35;;;;;;;8.93;6.80;;;6.90;99.90;;;;;;4991894;28;20462;-75
2022/11/11 09:05:02;;;;;;;10.93;7.00;;;7.20;99.90;;;;;;4991651;28;20483;-75
2022/11/11 09:07:30;;;;;;;10.27;7.17;;;7.40;99.90;;;;;;4991460;28;21147;-76
2022/11/11 09:09:57;;;;;;;19.30;7.87;;;7.60;99.90;;;;;;4995474;28;20447;-76
2022/11/11 09:12:23;;;;;;;15.67;6.60;;;7.70;99.90;;;;;;4995243;28;20459;-76
2022/11/11 09:14:50;;;;;;;23.67;7.10;;;7.90;99.90;;;;;;4995050;28;20458;-76
2022/11/11 09:17:17;;;;;;;8.23;6.47;;;8.10;99.90;;;;;;4994918;28;20494;-76
2022/11/11 09:19:44;;;;;;;16.33;7.60;;;8.20;99.90;;;;;;4995032;28;20856;-76
2022/11/11 09:22:10;;;;;;;10.50;7.10;;;8.40;99.90;;;;;;4995036;28;20835;-76
2022/11/11 09:24:38;;;;;;;16.27;6.93;;;8.50;99.90;;;;;;4994686;28;20873;-76
2022/11/11 09:27:05;;;;;;;10.63;6.00;;;8.60;99.90;;;;;;4995023;28;20883;-76
2022/11/11 09:29:32;;;;;;;10.90;6.00;;;8.80;99.90;;;;;;4994801;28;20829;-76
2022/11/11 09:31:59;;;;;;;12.13;7.67;;;8.80;99.90;;;;;;4994976;28;20478;-76
2022/11/11 09:34:25;;;;;;;13.03;5.90;;;9.10;99.90;;;;;;4994357;28;20829;-75
2022/11/11 09:36:52;;;;;;;6.90;5.37;;;9.30;99.90;;;;;;4994686;28;21019;-77
2022/11/11 09:39:19;;;;;;;8.93;6.13;;;9.70;99.90;;;;;;4994609;28;21019;-76
2022/11/11 09:41:58;;;;;;;11.20;6.90;;;9.70;99.90;;;;;;4994829;28;20466;-76
2022/11/11 09:44:55;;;;;;;15.70;6.20;;;9.80;99.90;;;;;;4994408;28;20471;-76
2022/11/11 09:47:31;;;;;;;7.70;5.77;;;9.90;99.90;;;;;;4994730;28;20474;-77
2022/11/11 09:50:01;;;;;;;11.80;5.73;;;10.10;99.90;;;;;;4994827;28;20447;-77
2022/11/11 09:52:31;;;;;;;8.57;5.83;;;10.40;99.90;;;;;;4994557;28;21007;-76
2022/11/11 09:55:03;;;;;;;9.17;5.30;;;10.40;99.90;;;;;;4994517;28;20465;-76
2022/11/11 09:57:36;;;;;;;8.37;5.30;;;10.40;99.90;;;;;;4994560;28;20483;-76
2022/11/11 10:00:13;;;;;;;7.00;5.10;;;10.50;99.90;;;;;;4994421;28;20848;-76
2022/11/11 10:02:46;;;;;;;8.37;4.80;;;10.60;99.90;;;;;;4994352;28;20448;-76
2022/11/11 10:05:16;;;;;;;7.90;5.87;;;10.80;99.90;;;;;;4994975;28;20452;-77
2022/11/11 10:07:47;;;;;;;8.53;5.20;;;11.00;99.90;;;;;;4994180;28;20587;-76
2022/11/11 10:10:24;;;;;;;6.37;5.07;;;11.20;99.90;;;;;;4994707;28;20436;-76
2022/11/11 10:12:55;;;;;;;6.93;5.07;;;11.70;99.90;;;;;;4994413;28;20464;-76
2022/11/11 10:15:26;;;;;;;10.40;4.80;;;11.90;99.90;;;;;;4994149;28;20446;-76
2022/11/11 10:18:11;;;;;;;9.43;5.37;;;12.00;99.90;;;;;;4994104;28;20487;-76
2022/11/11 10:20:42;;;;;;;6.23;4.50;;;12.00;99.90;;;;;;4993078;28;21003;-76
2022/11/11 10:23:16;;;;;;;8.50;4.87;;;12.10;99.90;;;;;;4994189;28;20515;-76
2022/11/11 10:25:51;;;;;;;5.67;4.87;;;12.20;99.90;;;;;;4993949;28;20847;-77
2022/11/11 10:28:22;;;;;;;6.40;4.47;;;12.40;99.90;;;;;;4994079;28;20462;-76
2022/11/11 10:30:51;;;;;;;6.30;4.33;;;12.60;99.90;;;;;;4993927;28;21207;-76
2022/11/11 10:33:23;;;;;;;5.90;4.50;;;12.70;99.90;;;;;;4993682;28;20467;-76
2022/11/11 10:35:51;;;;;;;6.40;3.87;;;12.90;99.90;;;;;;4992655;28;20460;-76
2022/11/11 10:38:31;;;;;;;5.33;3.87;;;13.00;99.90;;;;;;4992758;28;20952;-76
2022/11/11 10:41:08;;;;;;;7.80;3.90;;;13.30;99.90;;;;;;4992925;28;20454;-76
2022/11/11 10:43:36;;;;;;;5.17;4.13;;;13.30;99.90;;;;;;4992873;28;20456;-76
2022/11/11 10:46:11;;;;;;;8.03;3.90;;;13.50;99.90;;;;;;4992316;28;20448;-76
2022/11/11 10:48:47;;;;;;;6.40;4.00;;;13.80;99.90;;;;;;4992890;28;20534;-76
2022/11/11 10:51:15;;;;;;;8.27;3.40;;;14.00;99.90;;;;;;4992595;28;20467;-76
2022/11/11 10:53:48;;;;;;;7.03;4.03;;;14.10;99.90;;;;;;4992369;28;20458;-76
2022/11/11 10:56:22;;;;;;;4.80;3.97;;;14.00;99.90;;;;;;4992192;28;20503;-76
2022/11/11 10:58:55;;;;;;;4.77;3.53;;;14.40;99.90;;;;;;4992307;28;20971;-76
2022/11/11 11:01:31;;;;;;;6.23;3.87;;;14.50;99.90;;;;;;4992604;28;20475;-76
2022/11/11 11:04:04;;;;;;;6.13;4.23;;;14.70;99.90;;;;;;4992048;28;20550;-76
2022/11/11 11:06:35;;;;;;;8.63;3.53;;;15.00;99.90;;;;;;4992425;28;20480;-76
2022/11/11 11:09:14;;;;;;;7.60;3.50;;;15.00;99.90;;;;;;4992237;28;20459;-76
2022/11/11 11:11:46;;;;;;;5.00;3.53;;;15.00;99.90;;;;;;4992320;28;20451;-76
2022/11/11 11:14:20;;;;;;;17.27;3.87;;;15.40;99.90;;;;;;4991781;28;20460;-76
2022/11/11 11:16:51;;;;;;;4.93;3.03;;;15.40;99.90;;;;;;4992064;28;20487;-76
2022/11/11 11:19:20;;;;;;;5.03;2.50;;;15.50;99.90;;;;;;4992217;28;20511;-76
2022/11/11 11:21:52;;;;;;;4.87;2.53;;;15.40;99.90;;;;;;4992042;28;20455;-76
2022/11/11 11:24:21;;;;;;;4.23;3.37;;;15.40;99.90;;;;;;4991778;28;20452;-76
2022/11/11 11:26:50;;;;;;;3.93;2.87;;;15.50;99.90;;;;;;4991556;28;21008;-76
2022/11/11 11:29:26;;;;;;;5.50;3.10;;;15.60;99.90;;;;;;4991488;28;20457;-77
2022/11/11 11:31:53;;;;;;;3.87;2.77;;;15.70;99.90;;;;;;4991902;28;20916;-76
2022/11/11 11:34:20;;;;;;;5.53;2.57;;;15.80;99.90;;;;;;4991903;28;20459;-76
2022/11/11 11:37:00;;;;;;;4.90;3.10;;;15.90;99.90;;;;;;4991971;28;20482;-76
2022/11/11 11:39:35;;;;;;;3.30;2.60;;;16.00;99.90;;;;;;4991561;28;20502;-76
2022/11/11 11:42:01;;;;;;;3.33;2.50;;;16.70;99.90;;;;;;4992161;28;20806;-76
2022/11/11 11:44:31;;;;;;;3.80;2.70;;;17.20;99.90;;;;;;4991777;28;20455;-77
2022/11/11 11:47:09;;;;;;;5.57;2.50;;;17.20;99.90;;;;;;4991561;28;20991;-76
2022/11/11 11:49:51;;;;;;;4.03;2.40;;;17.20;99.90;;;;;;4991696;28;20948;-76
2022/11/11 11:52:27;;;;;;;6.57;2.10;;;17.20;99.90;;;;;;4991619;28;20456;-76
2022/11/11 11:55:04;;;;;;;4.40;2.80;;;17.40;99.90;;;;;;4991561;28;20467;-76
2022/11/11 11:57:44;;;;;;;5.70;2.53;;;17.50;99.90;;;;;;4991455;28;20479;-77
2022/11/11 12:00:18;;;;;;;4.60;2.70;;;17.40;99.90;;;;;;4991552;28;20476;-76
2022/11/11 12:03:16;;;;;;;4.30;2.70;;;17.30;99.90;;;;;;4991688;28;20483;-76
2022/11/11 12:05:48;;;;;;;4.60;2.57;;;17.30;99.90;;;;;;4991384;28;20531;-76
2022/11/11 12:08:30;;;;;;;4.53;2.40;;;17.20;99.90;;;;;;4991320;28;20492;-76
2022/11/11 12:11:01;;;;;;;2.90;2.23;;;17.20;99.90;;;;;;4991128;28;20841;-76
2022/11/11 12:13:38;;;;;;;3.50;2.67;;;17.40;99.90;;;;;;4991607;28;20801;-76
2022/11/11 12:16:18;;;;;;;3.93;2.30;;;17.30;99.90;;;;;;4990851;28;20459;-76
2022/11/11 12:19:07;;;;;;;5.93;2.33;;;17.30;99.90;;;;;;4991879;28;20629;-76
2022/11/11 12:21:41;;;;;;;5.77;2.50;;;17.40;99.90;;;;;;4989967;28;20467;-76
2022/11/11 12:24:20;;;;;;;3.30;2.30;;;17.60;99.90;;;;;;4992138;28;20444;-76
2022/11/11 12:26:57;;;;;;;3.37;2.30;;;17.60;99.90;;;;;;4992329;28;20853;-76
2022/11/11 12:29:38;;;;;;;4.00;2.50;;;17.40;99.90;;;;;;4991985;28;20447;-76
2022/11/11 12:32:36;;;;;;;10.13;2.40;;;17.30;99.90;;;;;;4992417;28;20444;-75
2022/11/11 12:35:21;;;;;;;3.93;2.60;;;17.70;99.90;;;;;;4992050;28;20835;-76
2022/11/11 12:38:01;;;;;;;4.13;1.97;;;17.60;99.90;;;;;;4992191;28;20858;-76
2022/11/11 12:40:40;;;;;;;4.90;2.23;;;17.50;99.90;;;;;;4990385;28;20489;-76
2022/11/11 12:43:17;;;;;;;5.87;2.80;;;17.30;99.90;;;;;;4991292;28;20435;-76
2022/11/11 12:45:47;;;;;;;4.17;2.20;;;17.20;99.90;;;;;;4993892;28;20444;-76
2022/11/11 12:48:31;;;;;;;4.00;2.03;;;17.00;99.90;;;;;;4993852;28;20480;-76
2022/11/11 12:51:07;;;;;;;2.67;1.93;;;16.90;99.90;;;;;;4994311;28;20446;-76
2022/11/11 12:53:43;;;;;;;3.80;1.97;;;17.00;99.90;;;;;;4994647;28;20440;-76
2022/11/11 12:56:20;;;;;;;2.90;2.10;;;17.00;99.90;;;;;;4995364;28;20952;-76
2022/11/11 12:58:54;;;;;;;3.77;2.03;;;17.00;99.90;;;;;;4995750;28;20459;-75
2022/11/11 13:01:32;;;;;;;3.13;2.10;;;17.00;99.90;;;;;;4995508;28;20486;-76
2022/11/11 13:04:28;;;;;;;4.40;2.50;;;17.00;99.90;;;;;;4995226;28;20444;-76
2022/11/11 13:07:21;;;;;;;9.43;2.80;;;17.00;99.90;;;;;;4995143;28;20479;-76
2022/11/11 13:10:02;;;;;;;4.13;2.23;;;17.00;99.90;;;;;;4995757;28;20446;-76
2022/11/11 13:12:34;;;;;;;5.83;2.43;;;17.10;99.90;;;;;;4995466;28;20455;-76
2022/11/11 13:15:04;;;;;;;4.40;2.40;;;17.10;99.90;;;;;;4994920;28;20466;-76
2022/11/11 13:17:32;;;;;;;4.93;2.40;;;17.00;99.90;;;;;;4995190;28;21004;-76
2022/11/11 13:20:05;;;;;;;6.60;2.47;;;17.00;99.90;;;;;;4995061;28;21029;-76
2022/11/11 13:22:32;;;;;;;5.30;3.00;;;17.00;99.90;;;;;;4995057;28;20444;-76
2022/11/11 13:25:04;;;;;;;6.53;2.60;;;17.00;99.90;;;;;;4995017;28;20460;-76
2022/11/11 13:27:37;;;;;;;3.57;2.63;;;17.00;99.90;;;;;;4994796;28;20475;-76
2022/11/11 13:30:31;;;;;;;4.67;2.43;;;16.90;99.90;;;;;;4995328;28;20440;-76
2022/11/11 13:33:03;;;;;;;6.07;3.00;;;16.90;99.90;;;;;;4995081;28;20456;-76
2022/11/11 13:35:35;;;;;;;6.57;3.63;;;16.90;99.90;;;;;;4995054;28;20458;-76
2022/11/11 13:38:02;;;;;;;4.20;3.43;;;16.80;99.90;;;;;;4994640;28;20493;-76
2022/11/11 13:40:36;;;;;;;4.73;3.10;;;16.80;99.90;;;;;;4994699;28;20491;-76
2022/11/11 13:43:04;;;;;;;4.80;3.80;;;16.80;99.90;;;;;;4995284;28;20464;-76
2022/11/11 13:45:36;;;;;;;7.73;3.57;;;16.80;99.90;;;;;;4994939;28;20486;-76
2022/11/11 13:48:04;;;;;;;10.87;4.57;;;16.80;99.90;;;;;;4994612;28;20477;-76
2022/11/11 13:50:36;;;;;;;9.03;4.13;;;16.70;99.90;;;;;;4994473;28;20456;-76
2022/11/11 13:53:05;;;;;;;5.23;4.03;;;16.70;99.90;;;;;;4994876;28;20465;-76
2022/11/11 13:55:36;;;;;;;7.00;3.77;;;16.60;99.90;;;;;;4993258;28;20462;-76
2022/11/11 13:58:05;;;;;;;6.10;3.80;;;16.70;99.90;;;;;;4994523;28;20480;-76
2022/11/11 14:00:36;;;;;;;4.90;3.20;;;16.70;99.90;;;;;;4994495;28;20554;-76
2022/11/11 14:03:34;;;;;;;7.13;3.07;;;16.70;99.90;;;;;;4994143;28;20462;-76
2022/11/11 14:06:44;;;;;;;7.80;3.30;;;16.60;99.90;;;;;;4994421;28;20456;-76
2022/11/11 14:09:12;;;;;;;5.70;3.40;;;16.60;99.90;;;;;;4979299;28;20460;-76
2022/11/11 14:11:38;;;;;;;9.77;3.43;;;16.60;99.90;;;;;;4994330;28;20906;-76
2022/11/11 14:14:42;;;;;;;7.23;3.53;;;16.60;99.90;;;;;;4994042;28;20455;-78
2022/11/11 14:17:14;;;;;;;3.13;2.50;;;16.70;99.90;;;;;;4994053;28;20479;-76
2022/11/11 14:19:41;;;;;;;5.63;2.67;;;16.70;99.90;;;;;;4993791;28;20514;-76
2022/11/11 14:22:30;;;;;;;5.67;2.50;;;16.70;99.90;;;;;;4993550;28;20940;-77
2022/11/11 14:25:17;;;;;;;5.87;3.03;;;16.70;99.90;;;;;;4994007;28;20448;-76
2022/11/11 14:27:45;;;;;;;5.57;2.90;;;16.70;99.90;;;;;;4993975;28;20570;-76
2022/11/11 14:30:44;;;;;;;4.80;2.80;;;16.70;99.90;;;;;;4993999;28;20448;-76
2022/11/11 14:33:20;;;;;;;11.03;3.30;;;16.60;99.90;;;;;;4994126;28;20539;-76
2022/11/11 14:35:57;;;;;;;4.80;2.90;;;16.50;99.90;;;;;;4993990;28;20440;-76
2022/11/11 14:38:38;;;;;;;5.07;3.10;;;16.50;99.90;;;;;;4993682;28;20956;-76
2022/11/11 14:41:48;;;;;;;3.27;2.50;;;16.50;99.90;;;;;;4994010;28;20482;-76
2022/11/11 14:44:40;;;;;;;6.17;3.57;;;16.40;99.90;;;;;;4993445;28;21128;-76
2022/11/11 14:47:19;;;;;;;3.90;2.50;;;16.30;99.90;;;;;;4993450;28;20563;-76
2022/11/11 14:49:47;;;;;;;3.03;2.33;;;16.30;99.90;;;;;;4993906;28;20527;-76
2022/11/11 14:52:23;;;;;;;11.73;2.83;;;16.20;99.90;;;;;;4993983;28;20463;-77
2022/11/11 14:55:14;;;;;;;3.80;2.80;;;16.20;99.90;;;;;;4993751;28;20455;-77
2022/11/11 14:57:47;;;;;;;6.27;2.77;;;16.10;99.90;;;;;;4993564;28;21023;-77
2022/11/11 15:00:17;;;;;;;7.67;3.57;;;16.10;99.90;;;;;;4993789;28;20495;-77
2022/11/11 15:02:50;;;;;;;4.20;2.90;;;16.00;99.90;;;;;;4994294;28;20463;-77
2022/11/11 15:05:21;;;;;;;4.43;3.00;;;15.90;99.90;;;;;;4993260;28;20447;-78
2022/11/11 15:08:06;;;;;;;3.20;2.50;;;15.90;99.90;;;;;;4993706;28;20483;-77
2022/11/11 15:10:56;;;;;;;8.90;3.27;;;15.80;99.90;;;;;;4993790;28;20444;-77
2022/11/11 15:13:54;;;;;;;3.60;2.50;;;15.70;99.90;;;;;;4993616;28;20455;-77
2022/11/11 15:16:34;;;;;;;9.90;3.13;;;15.60;99.90;;;;;;4991999;28;20498;-78
2022/11/11 15:19:23;;;;;;;6.77;3.30;;;15.60;99.90;;;;;;4993187;28;20459;-77
2022/11/11 15:22:02;;;;;;;9.43;2.70;;;15.50;99.90;;;;;;4993847;28;20679;-77
2022/11/11 15:24:40;;;;;;;5.80;3.30;;;15.40;99.90;;;;;;4993501;28;20447;-77
2022/11/11 15:27:20;;;;;;;5.20;2.90;;;15.30;99.90;;;;;;4993790;28;20983;-77
2022/11/11 15:30:02;;;;;;;5.00;3.33;;;15.30;99.90;;;;;;4993638;28;20459;-77
2022/11/11 15:32:40;;;;;;;7.40;2.80;;;15.20;99.90;;;;;;4993623;28;20909;-77
2022/11/11 15:35:30;;;;;;;5.17;3.00;;;15.10;99.90;;;;;;4993053;28;20920;-77
2022/11/11 15:38:01;;;;;;;7.03;3.73;;;15.10;99.90;;;;;;4993212;28;20986;-77
2022/11/11 15:40:32;;;;;;;5.87;3.10;;;15.00;99.90;;;;;;4993281;28;20476;-77
2022/11/11 15:43:02;;;;;;;10.57;3.33;;;15.00;99.90;;;;;;4992918;28;20916;-77
2022/11/11 15:45:36;;;;;;;4.17;3.50;;;14.80;99.90;;;;;;4992843;28;20471;-77
2022/11/11 15:48:03;;;;;;;9.00;4.20;;;14.70;99.90;;;;;;4992776;28;20482;-77
2022/11/11 15:50:37;;;;;;;7.00;4.00;;;14.70;99.90;;;;;;4992919;28;20513;-77
2022/11/11 15:53:04;;;;;;;6.03;4.23;;;14.60;99.90;;;;;;4992717;28;20951;-77
2022/11/11 15:55:34;;;;;;;6.27;4.30;;;14.50;99.90;;;;;;4992426;28;20506;-77
2022/11/11 15:58:12;;;;;;;8.33;4.63;;;14.50;99.90;;;;;;4993086;28;20480;-77
2022/11/11 16:00:41;;;;;;;8.93;4.50;;;14.40;99.90;;;;;;4992476;28;21084;-77
2022/11/11 16:03:15;;;;;;;9.80;4.63;;;14.30;99.90;;;;;;4992507;28;20883;-77
2022/11/11 16:05:46;;;;;;;6.27;4.37;;;14.20;99.90;;;;;;4992330;28;20466;-77
2022/11/11 16:08:21;;;;;;;6.03;4.40;;;14.20;99.90;;;;;;4992651;28;20526;-77
2022/11/11 16:10:56;;;;;;;7.47;4.53;;;14.10;99.90;;;;;;4991549;28;20803;-77
2022/11/11 16:13:26;;;;;;;5.87;4.70;;;14.00;99.90;;;;;;4991233;28;20443;-77
2022/11/11 16:15:58;;;;;;;7.10;4.10;;;13.90;99.90;;;;;;4991070;28;21023;-77
2022/11/11 16:18:29;;;;;;;9.63;4.70;;;13.90;99.90;;;;;;4992947;28;20539;-77
2022/11/11 16:21:00;;;;;;;4.83;4.33;;;13.80;99.90;;;;;;4995292;28;21003;-74
2022/11/11 16:23:27;;;;;;;9.40;5.53;;;13.80;99.90;;;;;;4995531;28;20447;-75
2022/11/11 16:25:56;;;;;;;7.13;5.00;;;13.70;99.90;;;;;;4995188;28;20477;-74
2022/11/11 16:28:23;;;;;;;13.37;4.40;;;13.60;99.90;;;;;;4995553;28;20464;-75
2022/11/11 16:30:54;;;;;;;10.33;5.97;;;13.50;99.90;;;;;;4995078;28;20451;-74
2022/11/11 16:33:34;;;;;;;11.50;5.20;;;13.50;99.90;;;;;;4995216;28;20471;-75
2022/11/11 16:36:09;;;;;;;9.93;5.73;;;13.40;99.90;;;;;;4994887;28;20440;-74
2022/11/11 16:38:37;;;;;;;11.13;5.67;;;13.30;99.90;;;;;;4995031;28;20495;-75
2022/11/11 16:41:04;;;;;;;9.10;5.60;;;13.20;99.90;;;;;;4995301;28;20491;-74
2022/11/11 16:43:32;;;;;;;11.07;6.50;;;13.10;99.90;;;;;;4994711;28;20460;-75
2022/11/11 16:46:04;;;;;;;9.13;7.00;;;13.10;99.90;;;;;;4994861;28;20455;-74
2022/11/11 16:48:50;;;;;;;24.97;7.50;;;13.00;99.90;;;;;;4995142;28;20532;-75
2022/11/11 16:51:23;;;;;;;12.20;7.20;;;12.90;99.90;;;;;;4994814;28;20460;-77
2022/11/11 16:54:07;;;;;;;14.53;10.13;;;12.90;99.90;;;;;;4994866;28;21076;-77
2022/11/11 16:56:36;;;;;;;12.77;10.70;;;12.70;99.90;;;;;;4995026;28;20979;-77
2022/11/11 16:59:07;;;;;;;12.83;10.13;;;12.60;99.90;;;;;;4995287;28;20807;-77
2022/11/11 17:01:45;;;;;;;11.70;10.00;;;12.60;99.90;;;;;;4995182;28;20486;-77
2022/11/11 17:04:15;;;;;;;14.67;10.20;;;12.50;99.90;;;;;;4994975;28;20447;-76
2022/11/11 17:06:55;;;;;;;14.37;9.40;;;12.50;99.90;;;;;;4995630;28;20475;-77
2022/11/11 17:09:43;;;;;;;15.47;10.73;;;12.40;99.90;;;;;;4995523;28;20466;-77
2022/11/11 17:12:10;;;;;;;10.80;9.70;;;12.30;99.90;;;;;;4994256;28;20440;-77
2022/11/11 17:14:38;;;;;;;15.10;11.00;;;12.30;99.90;;;;;;4994377;28;20459;-77
2022/11/11 17:17:09;;;;;;;16.00;11.00;;;12.20;99.90;;;;;;4994259;28;20491;-77
2022/11/11 17:19:36;;;;;;;11.87;8.70;;;12.10;99.90;;;;;;4994919;28;20452;-77
2022/11/11 17:22:08;;;;;;;13.60;10.40;;;12.10;99.90;;;;;;4994426;28;20491;-77
2022/11/11 17:24:35;;;;;;;15.40;9.73;;;12.00;99.90;;;;;;4994589;28;20846;-77
2022/11/11 17:27:04;;;;;;;9.60;7.70;;;12.00;99.90;;;;;;4995069;28;20503;-77
2022/11/11 17:29:31;;;;;;;14.37;10.60;;;11.90;99.90;;;;;;4995363;28;20455;-77
2022/11/11 17:31:57;;;;;;;21.67;16.90;;;11.80;99.90;;;;;;4995337;28;20531;-77
2022/11/11 17:34:25;;;;;;;17.67;13.73;;;11.80;99.90;;;;;;4995161;28;20470;-77
2022/11/11 17:36:52;;;;;;;14.23;10.40;;;11.70;99.90;;;;;;4995264;28;20857;-77
2022/11/11 17:39:19;;;;;;;12.10;10.73;;;11.70;99.90;;;;;;4995118;28;20490;-77
2022/11/11 17:41:46;;;;;;;14.87;10.80;;;11.70;99.90;;;;;;4995004;28;20496;-77
2022/11/11 17:44:13;;;;;;;13.27;10.67;;;11.60;99.90;;;;;;4994746;28;20902;-77
2022/11/11 17:46:40;;;;;;;12.30;9.93;;;11.50;99.90;;;;;;4994922;28;20976;-77
2022/11/11 17:49:07;;;;;;;12.30;9.60;;;11.50;99.90;;;;;;4994603;28;20966;-77
2022/11/11 17:51:35;;;;;;;14.00;10.57;;;11.40;99.90;;;;;;4995110;28;20467;-76
2022/11/11 17:54:02;;;;;;;14.97;9.37;;;11.40;99.90;;;;;;4995074;28;20467;-77
2022/11/11 17:56:30;;;;;;;12.90;7.90;;;11.40;99.90;;;;;;4994881;28;20486;-77
2022/11/11 17:58:56;;;;;;;10.90;7.83;;;11.30;99.90;;;;;;4995596;28;20471;-77
2022/11/11 18:01:23;;;;;;;9.87;6.80;;;11.30;99.90;;;;;;4995110;28;20502;-77
2022/11/11 18:03:54;;;;;;;9.47;6.00;;;11.20;99.90;;;;;;4995948;28;20456;-77
2022/11/11 18:06:21;;;;;;;8.70;5.93;;;11.20;99.90;;;;;;4994888;28;20515;-77
2022/11/11 18:08:49;;;;;;;10.10;7.40;;;11.20;99.90;;;;;;4994886;28;20458;-77
2022/11/11 18:11:28;;;;;;;11.90;6.17;;;11.10;99.90;;;;;;4995244;28;20464;-77
2022/11/11 18:13:55;;;;;;;6.70;5.50;;;11.10;99.90;;;;;;4994869;28;20440;-77
2022/11/11 18:16:24;;;;;;;12.07;7.07;;;11.10;99.90;;;;;;4994414;28;20488;-77
2022/11/11 18:18:58;;;;;;;8.00;6.50;;;11.00;99.90;;;;;;5003398;23;20575;-78
2022/11/11 18:21:25;;;;;;;11.60;8.10;;;10.90;99.90;;;;;;4976504;28;20824;-78
2022/11/11 18:23:53;;;;;;;12.60;9.17;;;10.90;99.90;;;;;;4975697;28;20460;-77
2022/11/11 18:26:20;;;;;;;19.10;10.70;;;10.90;99.90;;;;;;4975670;28;20457;-78
2022/11/11 18:28:47;;;;;;;14.40;9.43;;;10.90;99.90;;;;;;4957760;28;20564;-77
2022/11/11 18:31:15;;;;;;;17.33;11.60;;;10.90;99.90;;;;;;4955176;29;20461;-77
2022/11/11 18:33:43;;;;;;;23.57;15.93;;;10.80;99.90;;;;;;4955180;29;20845;-77
2022/11/11 18:36:12;;;;;;;24.57;17.93;;;10.80;99.90;;;;;;4954860;28;20564;-76
2022/11/11 18:38:39;;;;;;;24.43;16.40;;;10.70;99.90;;;;;;4955435;28;20484;-76
2022/11/11 18:41:09;;;;;;;25.37;17.97;;;10.60;99.90;;;;;;4954801;28;20493;-76
2022/11/11 18:43:39;;;;;;;26.90;18.70;;;10.60;99.90;;;;;;4955179;29;20461;-76
2022/11/11 18:46:08;;;;;;;27.80;19.57;;;10.60;99.90;;;;;;4955147;29;20457;-77
2022/11/11 18:48:35;;;;;;;33.07;21.10;;;10.50;99.90;;;;;;4955786;28;20474;-78
2022/11/11 18:51:17;;;;;;;36.10;22.83;;;10.50;99.90;;;;;;4956453;29;20457;-77
2022/11/11 18:53:44;;;;;;;36.53;23.63;;;10.50;99.90;;;;;;4955054;29;20504;-77
2022/11/11 18:56:23;;;;;;;32.17;21.87;;;10.40;99.90;;;;;;4954641;29;20465;-77
2022/11/11 18:58:52;;;;;;;41.00;24.50;;;10.30;99.90;;;;;;4954728;28;20485;-77
2022/11/11 19:01:22;;;;;;;49.33;30.00;;;10.30;99.90;;;;;;4954919;28;20497;-77
2022/11/11 19:03:52;;;;;;;42.37;26.77;;;10.20;99.90;;;;;;4954538;29;20442;-78
2022/11/11 19:06:20;;;;;;;41.03;25.90;;;10.10;99.90;;;;;;4953015;29;20461;-77
2022/11/11 19:08:47;;;;;;;30.80;21.27;;;10.10;99.90;;;;;;4954644;28;20485;-76
2022/11/11 19:11:16;;;;;;;22.17;15.50;;;10.10;99.90;;;;;;4954524;29;20459;-76